Time;durP1;ratioP1;P1;durP2;ratioP2;P2;SDS_P1;SDS_P2;PMS_P1;PMS_P2;Temp;Humidity;BMP_temperature;BMP_pressure;BME280_temperature;BME280_humidity;BME280_pressure;Samples;Min_cycle;Max_cycle;Signal;HPM_P1;HPM_P2
2022/08/30 00:02:05;;;;;;;7.20;5.22;;;;;;;;;;10043574;29;20878;-83
2022/08/30 00:07:07;;;;;;;6.38;5.70;;;;;;;;;;10043853;29;20412;-84
2022/08/30 00:12:09;;;;;;;7.97;5.53;;;;;;;;;;10077126;29;20411;-84
2022/08/30 00:17:12;;;;;;;8.07;6.20;;;;;;;;;;10072265;29;20797;-83
2022/08/30 00:22:14;;;;;;;7.70;6.03;;;;;;;;;;10077699;29;20407;-84
2022/08/30 00:27:16;;;;;;;8.05;5.93;;;;;;;;;;10072441;29;20550;-84
2022/08/30 00:32:20;;;;;;;7.03;5.60;;;;;;;;;;10077952;29;20419;-84
2022/08/30 00:37:22;;;;;;;6.97;5.30;;;;;;;;;;10073456;29;20430;-84
2022/08/30 00:42:24;;;;;;;7.88;5.43;;;;;;;;;;10068681;29;20432;-83
2022/08/30 00:47:27;;;;;;;7.87;5.73;;;;;;;;;;10041950;29;20500;-84
2022/08/30 00:52:29;;;;;;;7.82;5.70;;;;;;;;;;10041921;29;20424;-84
2022/08/30 00:57:33;;;;;;;8.83;6.20;;;;;;;;;;10046030;29;20431;-85
2022/08/30 01:02:36;;;;;;;8.23;6.07;;;;;;;;;;10068338;29;20422;-84
2022/08/30 01:07:39;;;;;;;9.55;7.32;;;;;;;;;;10049593;29;20500;-84
2022/08/30 01:12:42;;;;;;;8.27;6.37;;;;;;;;;;10048914;29;20964;-84
2022/08/30 01:17:47;;;;;;;8.88;7.18;;;;;;;;;;10066961;29;20526;-82
2022/08/30 01:23:04;;;;;;;7.13;6.37;;;;;;;;;;10074747;29;20442;-83
2022/08/30 01:28:13;;;;;;;7.90;7.10;;;;;;;;;;10076138;29;20514;-84
2022/08/30 01:33:15;;;;;;;9.00;6.70;;;;;;;;;;10085859;29;20498;-83
2022/08/30 01:38:21;;;;;;;9.40;6.93;;;;;;;;;;10065996;29;20543;-84
2022/08/30 01:43:23;;;;;;;7.47;6.70;;;;;;;;;;10084947;29;20415;-84
2022/08/30 01:48:27;;;;;;;7.95;6.72;;;;;;;;;;10084357;29;20482;-83
2022/08/30 01:53:31;;;;;;;9.33;6.90;;;;;;;;;;10049291;29;20497;-84
2022/08/30 01:58:33;;;;;;;8.43;7.18;;;;;;;;;;10067156;29;20485;-83
2022/08/30 02:03:36;;;;;;;9.57;7.85;;;;;;;;;;10074240;29;20411;-83
2022/08/30 02:08:40;;;;;;;9.95;7.85;;;;;;;;;;10070173;29;20887;-83
2022/08/30 02:13:44;;;;;;;9.90;7.13;;;;;;;;;;10082608;29;20506;-82
2022/08/30 02:18:46;;;;;;;9.35;6.50;;;;;;;;;;10071215;29;20538;-83
2022/08/30 02:23:49;;;;;;;8.07;6.68;;;;;;;;;;10082116;29;20528;-83
2022/08/30 02:28:52;;;;;;;8.57;7.30;;;;;;;;;;10072088;29;20509;-83
2022/08/30 02:33:54;;;;;;;10.30;8.18;;;;;;;;;;10080550;29;20860;-82
2022/08/30 02:38:57;;;;;;;10.15;8.05;;;;;;;;;;10072836;29;20506;-83
2022/08/30 02:43:59;;;;;;;9.95;8.40;;;;;;;;;;10079534;29;20428;-83
2022/08/30 02:49:01;;;;;;;11.05;7.78;;;;;;;;;;10074357;29;20509;-83
2022/08/30 02:54:04;;;;;;;10.82;8.75;;;;;;;;;;10067861;29;20934;-83
2022/08/30 02:59:06;;;;;;;10.40;8.35;;;;;;;;;;10076174;29;20533;-83
2022/08/30 03:04:08;;;;;;;11.93;8.07;;;;;;;;;;10080216;29;20505;-83
2022/08/30 03:09:11;;;;;;;9.93;7.80;;;;;;;;;;10079009;29;20422;-82
2022/08/30 03:14:13;;;;;;;10.68;9.27;;;;;;;;;;10078338;29;20414;-83
2022/08/30 03:19:15;;;;;;;12.23;8.70;;;;;;;;;;10077868;29;20883;-83
2022/08/30 03:24:18;;;;;;;9.95;8.20;;;;;;;;;;10075425;29;20446;-83
2022/08/30 03:29:20;;;;;;;10.63;7.53;;;;;;;;;;10066301;29;20431;-82
2022/08/30 03:34:22;;;;;;;10.30;7.70;;;;;;;;;;10074295;29;20421;-83
2022/08/30 03:39:28;;;;;;;9.73;7.97;;;;;;;;;;10068276;29;20525;-82
2022/08/30 03:44:30;;;;;;;11.50;8.23;;;;;;;;;;10072330;29;20421;-82
2022/08/30 03:49:32;;;;;;;10.95;8.13;;;;;;;;;;10069083;29;20446;-83
2022/08/30 03:54:35;;;;;;;10.18;8.85;;;;;;;;;;10050794;29;20518;-82
2022/08/30 03:59:37;;;;;;;10.15;8.45;;;;;;;;;;10074945;29;20532;-83
2022/08/30 04:04:39;;;;;;;11.50;8.23;;;;;;;;;;10078467;29;21328;-83
2022/08/30 04:09:42;;;;;;;11.75;8.35;;;;;;;;;;10077126;29;20795;-82
2022/08/30 04:14:44;;;;;;;11.57;9.13;;;;;;;;;;10078523;29;20502;-82
2022/08/30 04:19:45;;;;;;;13.55;8.85;;;;;;;;;;10068301;29;20522;-83
2022/08/30 04:24:49;;;;;;;12.75;9.00;;;;;;;;;;10078001;29;20433;-83
2022/08/30 04:29:52;;;;;;;10.23;8.93;;;;;;;;;;10070247;29;20896;-83
2022/08/30 04:34:56;;;;;;;9.63;8.43;;;;;;;;;;10080276;29;20461;-83
2022/08/30 04:40:00;;;;;;;12.18;8.43;;;;;;;;;;10078898;29;20441;-84
2022/08/30 04:45:04;;;;;;;9.93;7.85;;;;;;;;;;10083858;29;20423;-83
2022/08/30 04:50:07;;;;;;;8.07;7.00;;;;;;;;;;10081408;29;20502;-83
2022/08/30 04:55:13;;;;;;;7.63;6.33;;;;;;;;;;10074045;29;20517;-83
2022/08/30 05:00:16;;;;;;;9.13;6.75;;;;;;;;;;10082994;29;20525;-82
2022/08/30 05:10:40;;;;;;;7.53;6.05;;;;;;;;;;10084298;29;20449;-82
2022/08/30 05:15:42;;;;;;;7.47;6.13;;;;;;;;;;10055676;29;20493;-83
2022/08/30 05:20:44;;;;;;;6.73;5.90;;;;;;;;;;10059387;29;20441;-82
2022/08/30 05:25:47;;;;;;;9.15;6.45;;;;;;;;;;10064742;29;20840;-82
2022/08/30 05:30:49;;;;;;;9.00;6.90;;;;;;;;;;10061779;29;20499;-84
2022/08/30 05:35:51;;;;;;;7.57;6.22;;;;;;;;;;10069709;29;20427;-82
2022/08/30 05:40:54;;;;;;;8.77;6.85;;;;;;;;;;10063486;29;20439;-83
2022/08/30 05:46:00;;;;;;;9.80;6.90;;;;;;;;;;10067937;29;20427;-84
2022/08/30 05:51:06;;;;;;;9.13;7.00;;;;;;;;;;10048061;29;20798;-83
2022/08/30 05:56:11;;;;;;;8.90;7.60;;;;;;;;;;10061538;29;20913;-85
2022/08/30 06:01:25;;;;;;;9.35;7.57;;;;;;;;;;10057362;29;20536;-83
2022/08/30 06:06:27;;;;;;;10.53;7.93;;;;;;;;;;10057523;29;20436;-84
2022/08/30 06:11:31;;;;;;;11.60;8.23;;;;;;;;;;10067295;29;20495;-85
2022/08/30 06:16:33;;;;;;;10.02;8.20;;;;;;;;;;10062894;29;21126;-83
2022/08/30 06:21:38;;;;;;;11.70;8.93;;;;;;;;;;10055516;29;20975;-85
2022/08/30 06:26:43;;;;;;;11.52;8.07;;;;;;;;;;10049423;29;20429;-85
2022/08/30 06:31:46;;;;;;;9.95;8.55;;;;;;;;;;10048585;29;20427;-83
2022/08/30 06:36:48;;;;;;;10.80;8.35;;;;;;;;;;10055243;29;20965;-84
2022/08/30 06:41:51;;;;;;;11.63;8.15;;;;;;;;;;10054981;29;20540;-85
2022/08/30 06:46:53;;;;;;;10.77;8.77;;;;;;;;;;10071519;29;20423;-85
2022/08/30 06:51:54;;;;;;;12.13;8.53;;;;;;;;;;10064708;29;20425;-84
2022/08/30 06:56:58;;;;;;;11.43;9.15;;;;;;;;;;10077575;29;20427;-85
2022/08/30 07:02:00;;;;;;;11.15;9.05;;;;;;;;;;10082611;29;20562;-83
2022/08/30 07:07:01;;;;;;;9.80;8.57;;;;;;;;;;10070451;29;20425;-82
2022/08/30 07:12:06;;;;;;;11.10;8.90;;;;;;;;;;10048904;29;20496;-85
2022/08/30 07:22:24;;;;;;;11.15;8.35;;;;;;;;;;10047794;29;20905;-84
2022/08/30 07:27:27;;;;;;;9.48;7.78;;;;;;;;;;10049413;29;20432;-84
2022/08/30 07:32:29;;;;;;;9.35;7.22;;;;;;;;;;10048616;29;20417;-84
2022/08/30 07:37:31;;;;;;;8.43;7.07;;;;;;;;;;10048500;29;20511;-84
2022/08/30 07:42:34;;;;;;;9.07;7.15;;;;;;;;;;10048867;29;20480;-83
2022/08/30 07:47:36;;;;;;;10.13;7.72;;;;;;;;;;10053968;29;20503;-84
2022/08/30 07:52:38;;;;;;;8.05;7.15;;;;;;;;;;10049607;29;20528;-84
2022/08/30 07:57:41;;;;;;;7.95;6.80;;;;;;;;;;10061213;29;20964;-85
2022/08/30 08:02:44;;;;;;;10.48;7.60;;;;;;;;;;10051032;29;20449;-83
2022/08/30 08:07:46;;;;;;;9.88;7.80;;;;;;;;;;10052261;29;20471;-83
2022/08/30 08:12:49;;;;;;;10.43;7.80;;;;;;;;;;10072035;29;20446;-81
2022/08/30 08:17:51;;;;;;;9.67;7.73;;;;;;;;;;10064204;29;20464;-84
2022/08/30 08:22:53;;;;;;;8.50;7.32;;;;;;;;;;10065847;29;20559;-83
2022/08/30 08:27:56;;;;;;;7.83;6.90;;;;;;;;;;10079876;29;20510;-83
2022/08/30 08:32:58;;;;;;;9.07;6.35;;;;;;;;;;10070102;29;20550;-83
2022/08/30 08:38:00;;;;;;;7.90;6.23;;;;;;;;;;10079685;29;20441;-83
2022/08/30 08:43:10;;;;;;;8.63;5.63;;;;;;;;;;10075766;29;21021;-83
2022/08/30 08:48:25;;;;;;;6.93;5.43;;;;;;;;;;10071410;29;20433;-83
2022/08/30 08:53:36;;;;;;;8.20;6.47;;;;;;;;;;10073948;29;20434;-83
2022/08/30 08:58:43;;;;;;;8.77;5.88;;;;;;;;;;10080017;29;20510;-83
2022/08/30 09:03:46;;;;;;;8.50;6.10;;;;;;;;;;10062215;29;20437;-83
2022/08/30 09:08:48;;;;;;;8.03;5.47;;;;;;;;;;10070650;29;20417;-82
2022/08/30 09:13:53;;;;;;;8.00;4.80;;;;;;;;;;10075421;29;20458;-84
2022/08/30 09:18:55;;;;;;;10.43;5.43;;;;;;;;;;10074739;29;20426;-83
2022/08/30 09:24:00;;;;;;;6.77;5.10;;;;;;;;;;10075529;29;20868;-85
2022/08/30 09:29:05;;;;;;;8.10;4.80;;;;;;;;;;10073776;29;20499;-84
2022/08/30 09:34:08;;;;;;;5.35;4.07;;;;;;;;;;10078172;29;20441;-84
2022/08/30 09:39:17;;;;;;;4.43;3.88;;;;;;;;;;10076713;29;20435;-84
2022/08/30 09:44:23;;;;;;;5.10;3.92;;;;;;;;;;10065226;29;20521;-83
2022/08/30 09:49:34;;;;;;;3.40;3.10;;;;;;;;;;10067249;29;20411;-83
2022/08/30 09:54:41;;;;;;;4.90;3.50;;;;;;;;;;10055453;29;20481;-83
2022/08/30 09:59:53;;;;;;;4.07;3.47;;;;;;;;;;10048371;29;20441;-84
2022/08/30 10:05:03;;;;;;;4.03;3.63;;;;;;;;;;10059105;29;21091;-84
2022/08/30 10:10:16;;;;;;;4.60;3.42;;;;;;;;;;10068650;29;20416;-85
2022/08/30 10:15:25;;;;;;;5.78;3.63;;;;;;;;;;10067512;29;20564;-84
2022/08/30 10:20:33;;;;;;;3.73;2.80;;;;;;;;;;10059490;29;20441;-84
2022/08/30 10:25:38;;;;;;;4.50;2.83;;;;;;;;;;10055858;29;20508;-83
2022/08/30 10:30:48;;;;;;;3.55;2.90;;;;;;;;;;10044743;29;20428;-85
2022/08/30 10:35:54;;;;;;;3.90;3.00;;;;;;;;;;10058301;29;20414;-83
2022/08/30 10:41:16;;;;;;;4.93;3.10;;;;;;;;;;10068325;29;20435;-84
2022/08/30 10:46:28;;;;;;;4.90;3.00;;;;;;;;;;10069271;29;20427;-84
2022/08/30 10:51:36;;;;;;;3.37;3.03;;;;;;;;;;10069778;29;20521;-84
2022/08/30 10:56:43;;;;;;;3.22;2.92;;;;;;;;;;10044886;29;20425;-83
2022/08/30 11:02:16;;;;;;;3.50;3.20;;;;;;;;;;10057706;29;20444;-84
2022/08/30 11:07:31;;;;;;;3.75;3.17;;;;;;;;;;10062579;29;20689;-83
2022/08/30 11:12:38;;;;;;;3.80;3.20;;;;;;;;;;10060598;29;20416;-82
2022/08/30 11:17:46;;;;;;;5.38;3.28;;;;;;;;;;10056329;29;20413;-82
2022/08/30 11:23:18;;;;;;;3.80;2.70;;;;;;;;;;10056584;29;20477;-83
2022/08/30 11:28:58;;;;;;;4.22;3.33;;;;;;;;;;10054031;29;21161;-83
2022/08/30 11:34:02;;;;;;;3.27;2.90;;;;;;;;;;10072965;29;20463;-82
2022/08/30 11:39:06;;;;;;;5.60;3.20;;;;;;;;;;10071518;29;21496;-82
2022/08/30 11:44:14;;;;;;;3.77;3.43;;;;;;;;;;10068735;29;20469;-83
2022/08/30 11:49:47;;;;;;;3.40;2.80;;;;;;;;;;10061936;29;20422;-83
2022/08/30 11:55:03;;;;;;;3.40;3.10;;;;;;;;;;10058413;29;20420;-82
2022/08/30 12:00:09;;;;;;;3.13;2.83;;;;;;;;;;10055629;29;20448;-83
2022/08/30 12:05:44;;;;;;;3.60;2.93;;;;;;;;;;10058220;29;20943;-81
2022/08/30 12:10:50;;;;;;;3.88;3.10;;;;;;;;;;10063780;29;20479;-82
2022/08/30 12:15:57;;;;;;;2.80;2.60;;;;;;;;;;10058378;29;20427;-81
2022/08/30 12:21:09;;;;;;;3.22;2.70;;;;;;;;;;10053874;29;20439;-81
2022/08/30 12:26:20;;;;;;;3.17;2.88;;;;;;;;;;10056380;29;20864;-81
2022/08/30 12:31:25;;;;;;;3.20;2.90;;;;;;;;;;10048726;29;20413;-84
2022/08/30 12:36:33;;;;;;;3.17;2.88;;;;;;;;;;10056152;29;20780;-84
2022/08/30 12:41:37;;;;;;;3.22;2.95;;;;;;;;;;10060019;29;20833;-82
2022/08/30 12:46:40;;;;;;;3.50;3.20;;;;;;;;;;10064540;29;20431;-81
2022/08/30 12:51:43;;;;;;;4.80;3.40;;;;;;;;;;10076001;29;21921;-84
2022/08/30 12:56:53;;;;;;;3.42;3.13;;;;;;;;;;10077574;29;20505;-83
2022/08/30 13:01:54;;;;;;;3.42;3.00;;;;;;;;;;10082773;29;20442;-80
2022/08/30 13:06:59;;;;;;;4.50;3.30;;;;;;;;;;10084843;29;20442;-81
2022/08/30 13:12:04;;;;;;;3.83;3.20;;;;;;;;;;10084608;29;20449;-80
2022/08/30 13:17:19;;;;;;;4.10;3.42;;;;;;;;;;10085960;29;20970;-82
2022/08/30 13:22:27;;;;;;;3.47;3.10;;;;;;;;;;10068313;29;20447;-82
2022/08/30 13:27:31;;;;;;;5.13;3.40;;;;;;;;;;10064208;29;20926;-81
2022/08/30 13:32:36;;;;;;;5.00;3.40;;;;;;;;;;10060936;29;20420;-82
2022/08/30 13:37:40;;;;;;;4.10;3.70;;;;;;;;;;10061450;29;20509;-82
2022/08/30 13:42:44;;;;;;;4.07;3.70;;;;;;;;;;10054007;29;20444;-82
2022/08/30 13:47:47;;;;;;;4.18;3.05;;;;;;;;;;10066023;29;20419;-81
2022/08/30 13:52:49;;;;;;;3.77;3.20;;;;;;;;;;10065422;29;20421;-83
2022/08/30 13:57:52;;;;;;;3.40;3.10;;;;;;;;;;10053934;29;20507;-82
2022/08/30 14:02:55;;;;;;;3.67;3.33;;;;;;;;;;10060812;29;20441;-82
2022/08/30 14:07:57;;;;;;;5.07;3.70;;;;;;;;;;10057130;29;20420;-82
2022/08/30 14:13:00;;;;;;;3.35;3.08;;;;;;;;;;10060749;29;20419;-82
2022/08/30 14:18:02;;;;;;;4.40;3.30;;;;;;;;;;10059679;29;20897;-82
2022/08/30 14:23:03;;;;;;;3.40;3.10;;;;;;;;;;10065294;29;20987;-81
2022/08/30 14:28:07;;;;;;;3.90;3.40;;;;;;;;;;10056931;29;20506;-82
2022/08/30 14:33:09;;;;;;;3.80;3.08;;;;;;;;;;10045563;29;20417;-81
2022/08/30 14:38:10;;;;;;;4.82;3.35;;;;;;;;;;10068568;29;20999;-81
2022/08/30 14:43:13;;;;;;;4.20;3.37;;;;;;;;;;10064812;29;20439;-81
2022/08/30 14:48:15;;;;;;;3.67;3.33;;;;;;;;;;10062302;29;20426;-81
2022/08/30 14:53:17;;;;;;;4.10;3.70;;;;;;;;;;10054689;29;20447;-81
2022/08/30 14:58:20;;;;;;;4.00;3.47;;;;;;;;;;10057694;29;20418;-82
2022/08/30 15:03:22;;;;;;;5.07;3.90;;;;;;;;;;10054334;29;20441;-82
2022/08/30 15:08:24;;;;;;;4.03;3.67;;;;;;;;;;10053905;29;20421;-81
2022/08/30 15:13:28;;;;;;;4.18;3.50;;;;;;;;;;10069527;29;20506;-82
2022/08/30 15:18:29;;;;;;;3.70;3.40;;;;;;;;;;10061882;29;20411;-82
2022/08/30 15:23:31;;;;;;;4.10;3.55;;;;;;;;;;10052059;29;20441;-82
2022/08/30 15:28:35;;;;;;;3.60;3.30;;;;;;;;;;10050743;29;20947;-83
2022/08/30 15:33:37;;;;;;;4.68;3.55;;;;;;;;;;10052498;29;20443;-81
2022/08/30 15:38:41;;;;;;;6.00;3.50;;;;;;;;;;10051310;29;20428;-82
2022/08/30 15:43:44;;;;;;;3.97;3.55;;;;;;;;;;10062629;29;20467;-81
2022/08/30 15:48:46;;;;;;;4.43;3.60;;;;;;;;;;10066845;29;20442;-80
2022/08/30 15:53:49;;;;;;;4.30;3.85;;;;;;;;;;10056649;29;20500;-80
2022/08/30 15:58:52;;;;;;;3.75;3.45;;;;;;;;;;10059802;29;20423;-82
2022/08/30 16:03:54;;;;;;;4.30;3.42;;;;;;;;;;10055319;29;20543;-83
2022/08/30 16:08:57;;;;;;;6.75;4.15;;;;;;;;;;10059599;29;20902;-82
2022/08/30 16:14:01;;;;;;;3.95;3.58;;;;;;;;;;10053469;29;20590;-82
2022/08/30 16:19:04;;;;;;;4.45;4.03;;;;;;;;;;10057260;29;20414;-82
2022/08/30 16:24:07;;;;;;;5.57;3.95;;;;;;;;;;10057776;29;20933;-81
2022/08/30 16:29:14;;;;;;;4.38;3.85;;;;;;;;;;10053911;29;20438;-83
2022/08/30 16:34:18;;;;;;;5.25;4.03;;;;;;;;;;10079152;29;20502;-82
2022/08/30 16:39:20;;;;;;;6.03;3.77;;;;;;;;;;10073278;29;20921;-82
2022/08/30 16:44:23;;;;;;;4.13;3.70;;;;;;;;;;10069199;29;20438;-82
2022/08/30 16:49:25;;;;;;;4.60;3.60;;;;;;;;;;10074199;29;20427;-81
2022/08/30 16:54:27;;;;;;;4.03;3.60;;;;;;;;;;10075569;29;21113;-82
2022/08/30 16:59:30;;;;;;;5.65;3.38;;;;;;;;;;10067399;29;20564;-81
2022/08/30 17:04:32;;;;;;;3.63;3.33;;;;;;;;;;10075064;29;20510;-80
2022/08/30 17:09:34;;;;;;;3.20;2.78;;;;;;;;;;10073640;29;20892;-80
2022/08/30 17:14:38;;;;;;;3.87;3.00;;;;;;;;;;10072098;29;20907;-80
2022/08/30 17:19:41;;;;;;;3.97;2.50;;;;;;;;;;10070659;29;20513;-81
2022/08/30 17:24:42;;;;;;;2.70;2.45;;;;;;;;;;10073261;29;20471;-81
2022/08/30 17:29:46;;;;;;;2.60;2.40;;;;;;;;;;10056115;29;20418;-80
2022/08/30 17:34:47;;;;;;;2.90;2.30;;;;;;;;;;10064200;29;20430;-80
2022/08/30 17:39:49;;;;;;;3.88;2.40;;;;;;;;;;10065004;29;20941;-80
2022/08/30 17:44:53;;;;;;;2.50;1.97;;;;;;;;;;10061811;29;20434;-81
2022/08/30 17:49:56;;;;;;;4.38;2.20;;;;;;;;;;10079798;29;20459;-82
2022/08/30 17:54:58;;;;;;;2.72;2.38;;;;;;;;;;10075183;29;20514;-82
2022/08/30 18:00:01;;;;;;;2.33;2.13;;;;;;;;;;10071598;29;20425;-82
2022/08/30 18:05:04;;;;;;;3.55;2.55;;;;;;;;;;10073549;29;20515;-81
2022/08/30 18:10:06;;;;;;;3.90;2.15;;;;;;;;;;10059378;29;20448;-80
2022/08/30 18:15:10;;;;;;;3.58;2.22;;;;;;;;;;10064097;29;20873;-82
2022/08/30 18:20:12;;;;;;;2.60;2.40;;;;;;;;;;10070184;29;20418;-82
2022/08/30 18:25:14;;;;;;;4.97;2.35;;;;;;;;;;10074475;29;20441;-82
2022/08/30 18:30:17;;;;;;;4.67;3.13;;;;;;;;;;10071218;29;21182;-83
2022/08/30 18:35:19;;;;;;;4.87;3.40;;;;;;;;;;10067867;29;20415;-82
2022/08/30 18:40:21;;;;;;;5.65;3.10;;;;;;;;;;10072189;29;20515;-82
2022/08/30 18:45:24;;;;;;;3.80;2.90;;;;;;;;;;10067407;29;20446;-83
2022/08/30 18:50:27;;;;;;;3.03;2.10;;;;;;;;;;10065387;29;20424;-83
2022/08/30 18:55:30;;;;;;;6.20;3.42;;;;;;;;;;10057024;29;20901;-82
2022/08/30 19:00:33;;;;;;;6.73;3.60;;;;;;;;;;10065915;29;21249;-82
2022/08/30 19:05:36;;;;;;;7.90;3.20;;;;;;;;;;10059554;29;20427;-83
2022/08/30 19:10:37;;;;;;;3.42;2.00;;;;;;;;;;10060009;29;20480;-82
2022/08/30 19:15:41;;;;;;;3.85;1.90;;;;;;;;;;10062640;29;20423;-82
2022/08/30 19:20:42;;;;;;;8.53;1.90;;;;;;;;;;10061070;29;20930;-82
2022/08/30 19:25:46;;;;;;;4.73;1.90;;;;;;;;;;10073989;29;20913;-81
2022/08/30 19:30:50;;;;;;;4.78;2.08;;;;;;;;;;10063186;29;20436;-79
2022/08/30 19:35:52;;;;;;;5.07;2.13;;;;;;;;;;10069595;29;20968;-80
2022/08/30 19:40:58;;;;;;;3.37;1.73;;;;;;;;;;10072956;29;20570;-79
2022/08/30 19:46:01;;;;;;;5.03;1.90;;;;;;;;;;10072957;29;20419;-79
2022/08/30 19:51:07;;;;;;;4.22;1.92;;;;;;;;;;10069228;29;20943;-80
2022/08/30 19:56:09;;;;;;;3.55;2.20;;;;;;;;;;10070428;29;20437;-81
2022/08/30 20:01:12;;;;;;;3.45;1.80;;;;;;;;;;10075228;29;20427;-80
2022/08/30 20:06:16;;;;;;;4.80;1.90;;;;;;;;;;10078184;29;20410;-80
2022/08/30 20:11:19;;;;;;;4.72;2.35;;;;;;;;;;10071472;29;20434;-81
2022/08/30 20:16:23;;;;;;;3.35;2.50;;;;;;;;;;10076629;29;20515;-80
2022/08/30 20:21:25;;;;;;;5.05;3.55;;;;;;;;;;10064270;29;20439;-80
2022/08/30 20:26:28;;;;;;;7.03;4.03;;;;;;;;;;10068039;29;20434;-81
2022/08/30 20:31:32;;;;;;;5.18;3.95;;;;;;;;;;10055548;29;20419;-80
2022/08/30 20:36:34;;;;;;;6.53;4.10;;;;;;;;;;10056884;29;20504;-79
2022/08/30 20:41:37;;;;;;;4.82;3.83;;;;;;;;;;10062351;29;20488;-80
2022/08/30 20:46:43;;;;;;;5.00;4.50;;;;;;;;;;10060858;29;20430;-78
2022/08/30 20:51:45;;;;;;;7.32;4.55;;;;;;;;;;10065082;29;20426;-78
2022/08/30 20:56:46;;;;;;;4.65;3.85;;;;;;;;;;10067322;29;20414;-80
2022/08/30 21:01:50;;;;;;;5.53;3.60;;;;;;;;;;10067462;29;20528;-79
2022/08/30 21:06:51;;;;;;;4.78;3.45;;;;;;;;;;10072526;29;20416;-79
2022/08/30 21:11:53;;;;;;;3.58;3.10;;;;;;;;;;10070337;29;20430;-78
2022/08/30 21:16:56;;;;;;;5.63;3.60;;;;;;;;;;10070484;29;20443;-80
2022/08/30 21:21:59;;;;;;;3.55;3.17;;;;;;;;;;10057169;29;20555;-79
2022/08/30 21:27:00;;;;;;;5.22;3.75;;;;;;;;;;10065552;29;20424;-79
2022/08/30 21:32:04;;;;;;;4.97;3.60;;;;;;;;;;10060939;29;20421;-78
2022/08/30 21:37:06;;;;;;;5.10;3.60;;;;;;;;;;10063419;29;20436;-80
2022/08/30 21:42:10;;;;;;;5.80;3.70;;;;;;;;;;10061122;29;20441;-79
2022/08/30 21:47:13;;;;;;;6.47;3.67;;;;;;;;;;10070207;29;20422;-78
2022/08/30 21:52:15;;;;;;;3.30;3.00;;;;;;;;;;10053612;29;20416;-80
2022/08/30 21:57:17;;;;;;;6.20;4.10;;;;;;;;;;10068103;29;20755;-79
2022/08/30 22:02:21;;;;;;;7.47;5.00;;;;;;;;;;10065650;29;20435;-80
2022/08/30 22:07:23;;;;;;;5.60;4.22;;;;;;;;;;10059533;29;20539;-80
2022/08/30 22:12:25;;;;;;;7.20;5.00;;;;;;;;;;10058012;29;20421;-81
2022/08/30 22:17:29;;;;;;;8.90;5.78;;;;;;;;;;10056438;29;20467;-80
2022/08/30 22:22:30;;;;;;;8.82;5.78;;;;;;;;;;10065229;29;20868;-79
2022/08/30 22:27:34;;;;;;;8.77;5.75;;;;;;;;;;10060063;29;20860;-80
2022/08/30 22:32:38;;;;;;;7.47;5.00;;;;;;;;;;10056284;29;20916;-79
2022/08/30 22:37:40;;;;;;;6.88;4.80;;;;;;;;;;10052757;29;20941;-79
2022/08/30 22:42:42;;;;;;;4.20;3.80;;;;;;;;;;10057617;29;21005;-80
2022/08/30 22:47:45;;;;;;;4.87;4.27;;;;;;;;;;10067437;29;20426;-80
2022/08/30 22:52:47;;;;;;;5.47;3.70;;;;;;;;;;10060610;29;20795;-80
2022/08/30 22:57:49;;;;;;;4.35;3.60;;;;;;;;;;10064358;29;20431;-80
2022/08/30 23:02:53;;;;;;;5.00;2.90;;;;;;;;;;10078639;29;20522;-80
2022/08/30 23:07:55;;;;;;;4.00;3.28;;;;;;;;;;10063509;29;20522;-80
2022/08/30 23:13:00;;;;;;;4.22;3.78;;;;;;;;;;10054475;29;20416;-81
2022/08/30 23:18:04;;;;;;;3.97;3.47;;;;;;;;;;10053931;29;20447;-81
